sensor_id;sensor_type;location;lat;lon;timestamp;temperature;humidity
19058;DHT22;9662;53.612;9.914;2022-10-03T00:00:10;13.30;99.90
19058;DHT22;9662;53.612;9.914;2022-10-03T00:05:44;13.40;99.90
19058;DHT22;9662;53.612;9.914;2022-10-03T00:08:27;13.30;99.90
19058;DHT22;9662;53.612;9.914;2022-10-03T00:11:03;13.30;99.90
19058;DHT22;9662;53.612;9.914;2022-10-03T00:13:40;13.40;99.90
19058;DHT22;9662;53.612;9.914;2022-10-03T00:16:12;13.40;99.90
19058;DHT22;9662;53.612;9.914;2022-10-03T00:18:51;13.40;99.90
19058;DHT22;9662;53.612;9.914;2022-10-03T00:21:34;13.50;99.90
19058;DHT22;9662;53.612;9.914;2022-10-03T00:24:14;13.50;99.90
19058;DHT22;9662;53.612;9.914;2022-10-03T00:26:47;13.50;99.90
19058;DHT22;9662;53.612;9.914;2022-10-03T00:29:35;13.40;99.90
19058;DHT22;9662;53.612;9.914;2022-10-03T00:32:13;13.40;99.90
19058;DHT22;9662;53.612;9.914;2022-10-03T00:34:53;13.50;99.90
19058;DHT22;9662;53.612;9.914;2022-10-03T00:37:28;13.60;99.90
19058;DHT22;9662;53.612;9.914;2022-10-03T00:40:10;13.70;99.90
19058;DHT22;9662;53.612;9.914;2022-10-03T00:45:59;13.70;99.90
19058;DHT22;9662;53.612;9.914;2022-10-03T00:49:01;13.80;99.90
19058;DHT22;9662;53.612;9.914;2022-10-03T00:51:45;13.70;99.90
19058;DHT22;9662;53.612;9.914;2022-10-03T00:54:27;13.80;99.90
19058;DHT22;9662;53.612;9.914;2022-10-03T00:57:18;13.90;99.90
19058;DHT22;9662;53.612;9.914;2022-10-03T01:00:04;13.70;99.90
19058;DHT22;9662;53.612;9.914;2022-10-03T01:02:46;13.80;99.90
19058;DHT22;9662;53.612;9.914;2022-10-03T01:05:22;13.80;99.90
19058;DHT22;9662;53.612;9.914;2022-10-03T01:08:19;13.90;99.90
19058;DHT22;9662;53.612;9.914;2022-10-03T01:10:53;13.90;99.90
19058;DHT22;9662;53.612;9.914;2022-10-03T01:13:32;13.90;99.90
19058;DHT22;9662;53.612;9.914;2022-10-03T01:16:11;14.00;99.90
19058;DHT22;9662;53.612;9.914;2022-10-03T01:18:50;14.10;99.90
19058;DHT22;9662;53.612;9.914;2022-10-03T01:21:30;14.10;99.90
19058;DHT22;9662;53.612;9.914;2022-10-03T01:27:12;14.20;99.90
19058;DHT22;9662;53.612;9.914;2022-10-03T01:29:46;14.20;99.90
19058;DHT22;9662;53.612;9.914;2022-10-03T01:32:38;14.00;99.90
19058;DHT22;9662;53.612;9.914;2022-10-03T01:35:13;14.10;99.90
19058;DHT22;9662;53.612;9.914;2022-10-03T01:37:50;14.10;99.90
19058;DHT22;9662;53.612;9.914;2022-10-03T01:40:22;13.90;99.90
19058;DHT22;9662;53.612;9.914;2022-10-03T01:43:00;13.70;99.90
19058;DHT22;9662;53.612;9.914;2022-10-03T01:45:36;13.80;99.90
19058;DHT22;9662;53.612;9.914;2022-10-03T01:48:10;13.70;99.90
19058;DHT22;9662;53.612;9.914;2022-10-03T01:50:47;13.70;99.90
19058;DHT22;9662;53.612;9.914;2022-10-03T01:53:25;13.70;99.90
19058;DHT22;9662;53.612;9.914;2022-10-03T01:55:57;13.70;99.90
19058;DHT22;9662;53.612;9.914;2022-10-03T01:58:29;13.70;99.90
19058;DHT22;9662;53.612;9.914;2022-10-03T02:01:05;13.70;99.90
19058;DHT22;9662;53.612;9.914;2022-10-03T02:03:37;13.50;99.90
19058;DHT22;9662;53.612;9.914;2022-10-03T02:06:16;13.50;99.90
19058;DHT22;9662;53.612;9.914;2022-10-03T02:08:50;13.50;99.90
19058;DHT22;9662;53.612;9.914;2022-10-03T02:11:28;13.60;99.90
19058;DHT22;9662;53.612;9.914;2022-10-03T02:14:04;13.60;99.90
19058;DHT22;9662;53.612;9.914;2022-10-03T02:16:38;13.60;99.90
19058;DHT22;9662;53.612;9.914;2022-10-03T02:19:12;13.60;99.90
19058;DHT22;9662;53.612;9.914;2022-10-03T02:21:46;13.60;99.90
19058;DHT22;9662;53.612;9.914;2022-10-03T02:24:24;13.50;99.90
19058;DHT22;9662;53.612;9.914;2022-10-03T02:30:15;13.40;99.90
19058;DHT22;9662;53.612;9.914;2022-10-03T02:33:14;13.30;99.90
19058;DHT22;9662;53.612;9.914;2022-10-03T02:36:01;13.20;99.90
19058;DHT22;9662;53.612;9.914;2022-10-03T02:38:43;13.20;99.90
19058;DHT22;9662;53.612;9.914;2022-10-03T02:41:28;13.20;99.90
19058;DHT22;9662;53.612;9.914;2022-10-03T02:44:29;13.20;99.90
19058;DHT22;9662;53.612;9.914;2022-10-03T02:47:46;13.20;99.90
19058;DHT22;9662;53.612;9.914;2022-10-03T02:50:50;13.20;99.90
19058;DHT22;9662;53.612;9.914;2022-10-03T02:57:03;13.10;99.90
19058;DHT22;9662;53.612;9.914;2022-10-03T03:03:03;13.00;99.90
19058;DHT22;9662;53.612;9.914;2022-10-03T03:12:05;12.90;99.90
19058;DHT22;9662;53.612;9.914;2022-10-03T03:18:00;13.00;99.90
19058;DHT22;9662;53.612;9.914;2022-10-03T03:21:02;13.00;99.90
19058;DHT22;9662;53.612;9.914;2022-10-03T03:23:57;13.00;99.90
19058;DHT22;9662;53.612;9.914;2022-10-03T03:26:43;12.90;99.90
19058;DHT22;9662;53.612;9.914;2022-10-03T03:29:22;13.00;99.90
19058;DHT22;9662;53.612;9.914;2022-10-03T03:31:56;13.00;99.90
19058;DHT22;9662;53.612;9.914;2022-10-03T03:34:32;12.90;99.90
19058;DHT22;9662;53.612;9.914;2022-10-03T03:37:05;12.90;99.90
19058;DHT22;9662;53.612;9.914;2022-10-03T03:39:56;12.90;99.90
19058;DHT22;9662;53.612;9.914;2022-10-03T03:42:41;12.80;99.90
19058;DHT22;9662;53.612;9.914;2022-10-03T03:45:32;12.90;99.90
19058;DHT22;9662;53.612;9.914;2022-10-03T03:48:22;12.80;99.90
19058;DHT22;9662;53.612;9.914;2022-10-03T03:51:01;12.90;99.90
19058;DHT22;9662;53.612;9.914;2022-10-03T03:53:48;12.80;99.90
19058;DHT22;9662;53.612;9.914;2022-10-03T03:56:26;12.80;99.90
19058;DHT22;9662;53.612;9.914;2022-10-03T03:59:03;12.80;99.90
19058;DHT22;9662;53.612;9.914;2022-10-03T04:01:48;12.70;99.90
19058;DHT22;9662;53.612;9.914;2022-10-03T04:04:36;12.70;99.90
19058;DHT22;9662;53.612;9.914;2022-10-03T04:07:12;12.70;99.90
19058;DHT22;9662;53.612;9.914;2022-10-03T04:10:11;12.70;99.90
19058;DHT22;9662;53.612;9.914;2022-10-03T04:13:02;12.70;99.90
19058;DHT22;9662;53.612;9.914;2022-10-03T04:15:43;12.70;99.90
19058;DHT22;9662;53.612;9.914;2022-10-03T04:18:24;12.70;99.90
19058;DHT22;9662;53.612;9.914;2022-10-03T04:21:38;12.60;99.90
19058;DHT22;9662;53.612;9.914;2022-10-03T04:24:23;12.60;99.90
19058;DHT22;9662;53.612;9.914;2022-10-03T04:27:12;12.60;99.90
19058;DHT22;9662;53.612;9.914;2022-10-03T04:29:46;12.60;99.90
19058;DHT22;9662;53.612;9.914;2022-10-03T04:32:46;12.60;99.90
19058;DHT22;9662;53.612;9.914;2022-10-03T04:38:22;12.50;99.90
19058;DHT22;9662;53.612;9.914;2022-10-03T04:40:58;12.60;99.90
19058;DHT22;9662;53.612;9.914;2022-10-03T04:43:33;12.50;99.90
19058;DHT22;9662;53.612;9.914;2022-10-03T04:46:14;12.60;99.90
19058;DHT22;9662;53.612;9.914;2022-10-03T04:48:48;12.60;99.90
19058;DHT22;9662;53.612;9.914;2022-10-03T04:51:23;12.60;99.90
19058;DHT22;9662;53.612;9.914;2022-10-03T04:53:55;12.60;99.90
19058;DHT22;9662;53.612;9.914;2022-10-03T04:56:39;12.60;99.90
19058;DHT22;9662;53.612;9.914;2022-10-03T04:59:22;12.50;99.90
19058;DHT22;9662;53.612;9.914;2022-10-03T05:01:54;12.50;99.90
19058;DHT22;9662;53.612;9.914;2022-10-03T05:04:31;12.40;99.90
19058;DHT22;9662;53.612;9.914;2022-10-03T05:07:09;12.50;99.90
19058;DHT22;9662;53.612;9.914;2022-10-03T05:09:43;12.50;99.90
19058;DHT22;9662;53.612;9.914;2022-10-03T05:12:15;12.50;99.90
19058;DHT22;9662;53.612;9.914;2022-10-03T05:15:03;12.50;99.90
19058;DHT22;9662;53.612;9.914;2022-10-03T05:17:40;12.50;99.90
19058;DHT22;9662;53.612;9.914;2022-10-03T05:20:21;12.50;99.90
19058;DHT22;9662;53.612;9.914;2022-10-03T05:22:56;12.50;99.90
19058;DHT22;9662;53.612;9.914;2022-10-03T05:25:36;12.50;99.90
19058;DHT22;9662;53.612;9.914;2022-10-03T05:28:14;12.50;99.90
19058;DHT22;9662;53.612;9.914;2022-10-03T05:30:51;12.50;99.90
19058;DHT22;9662;53.612;9.914;2022-10-03T05:33:28;12.40;99.90
19058;DHT22;9662;53.612;9.914;2022-10-03T05:36:08;12.50;99.90
19058;DHT22;9662;53.612;9.914;2022-10-03T05:41:50;12.50;99.90
19058;DHT22;9662;53.612;9.914;2022-10-03T05:44:20;12.40;99.90
19058;DHT22;9662;53.612;9.914;2022-10-03T05:46:58;12.40;99.90
19058;DHT22;9662;53.612;9.914;2022-10-03T05:49:47;12.40;99.90
19058;DHT22;9662;53.612;9.914;2022-10-03T05:52:39;12.40;99.90
19058;DHT22;9662;53.612;9.914;2022-10-03T05:55:35;12.50;99.90
19058;DHT22;9662;53.612;9.914;2022-10-03T05:58:28;12.50;99.90
19058;DHT22;9662;53.612;9.914;2022-10-03T06:01:15;12.60;99.90
19058;DHT22;9662;53.612;9.914;2022-10-03T06:03:59;12.60;99.90
19058;DHT22;9662;53.612;9.914;2022-10-03T06:06:39;12.70;99.90
19058;DHT22;9662;53.612;9.914;2022-10-03T06:09:35;12.70;99.90
19058;DHT22;9662;53.612;9.914;2022-10-03T06:12:08;12.80;99.90
19058;DHT22;9662;53.612;9.914;2022-10-03T06:15:12;12.90;99.90
19058;DHT22;9662;53.612;9.914;2022-10-03T06:17:55;12.90;99.90
19058;DHT22;9662;53.612;9.914;2022-10-03T06:20:55;13.00;99.90
19058;DHT22;9662;53.612;9.914;2022-10-03T06:23:54;13.10;99.90
19058;DHT22;9662;53.612;9.914;2022-10-03T06:42:35;13.60;99.90
19058;DHT22;9662;53.612;9.914;2022-10-03T06:48:20;13.80;99.90
19058;DHT22;9662;53.612;9.914;2022-10-03T06:51:15;13.90;99.90
19058;DHT22;9662;53.612;9.914;2022-10-03T06:54:05;13.90;99.90
19058;DHT22;9662;53.612;9.914;2022-10-03T06:57:06;13.90;99.90
19058;DHT22;9662;53.612;9.914;2022-10-03T06:59:58;13.90;99.90
19058;DHT22;9662;53.612;9.914;2022-10-03T07:03:09;13.90;99.90
19058;DHT22;9662;53.612;9.914;2022-10-03T07:06:09;13.90;99.90
19058;DHT22;9662;53.612;9.914;2022-10-03T07:12:00;13.90;99.90
19058;DHT22;9662;53.612;9.914;2022-10-03T07:15:05;14.00;99.90
19058;DHT22;9662;53.612;9.914;2022-10-03T07:24:27;14.00;99.90
19058;DHT22;9662;53.612;9.914;2022-10-03T07:27:18;14.00;99.90
19058;DHT22;9662;53.612;9.914;2022-10-03T07:30:05;14.20;99.90
19058;DHT22;9662;53.612;9.914;2022-10-03T07:35:44;14.20;99.90
19058;DHT22;9662;53.612;9.914;2022-10-03T07:42:08;14.10;99.90
19058;DHT22;9662;53.612;9.914;2022-10-03T07:48:15;14.10;99.90
19058;DHT22;9662;53.612;9.914;2022-10-03T07:50:56;14.10;99.90
19058;DHT22;9662;53.612;9.914;2022-10-03T07:53:50;14.10;99.90
19058;DHT22;9662;53.612;9.914;2022-10-03T07:56:40;14.30;99.90
19058;DHT22;9662;53.612;9.914;2022-10-03T08:03:10;14.00;99.90
19058;DHT22;9662;53.612;9.914;2022-10-03T08:05:55;14.00;99.90
19058;DHT22;9662;53.612;9.914;2022-10-03T08:08:54;14.20;99.90
19058;DHT22;9662;53.612;9.914;2022-10-03T08:11:55;14.50;99.90
19058;DHT22;9662;53.612;9.914;2022-10-03T08:14:31;14.70;99.90
19058;DHT22;9662;53.612;9.914;2022-10-03T08:20:30;15.00;99.90
19058;DHT22;9662;53.612;9.914;2022-10-03T08:23:14;15.20;99.90
19058;DHT22;9662;53.612;9.914;2022-10-03T08:25:57;15.20;99.90
19058;DHT22;9662;53.612;9.914;2022-10-03T08:28:37;15.30;99.90
19058;DHT22;9662;53.612;9.914;2022-10-03T08:31:32;15.30;99.90
19058;DHT22;9662;53.612;9.914;2022-10-03T08:34:29;15.10;99.90
19058;DHT22;9662;53.612;9.914;2022-10-03T08:37:19;15.10;99.90
19058;DHT22;9662;53.612;9.914;2022-10-03T08:40:26;15.40;99.90
19058;DHT22;9662;53.612;9.914;2022-10-03T08:46:01;16.00;99.90
19058;DHT22;9662;53.612;9.914;2022-10-03T08:48:53;16.10;99.90
19058;DHT22;9662;53.612;9.914;2022-10-03T08:51:58;16.20;99.90
19058;DHT22;9662;53.612;9.914;2022-10-03T08:54:45;16.30;99.90
19058;DHT22;9662;53.612;9.914;2022-10-03T09:00:24;16.20;99.90
19058;DHT22;9662;53.612;9.914;2022-10-03T09:06:44;16.60;99.90
19058;DHT22;9662;53.612;9.914;2022-10-03T09:09:55;16.70;99.90
19058;DHT22;9662;53.612;9.914;2022-10-03T09:12:42;16.60;99.90
19058;DHT22;9662;53.612;9.914;2022-10-03T09:18:32;16.70;99.90
19058;DHT22;9662;53.612;9.914;2022-10-03T09:21:37;16.60;99.90
19058;DHT22;9662;53.612;9.914;2022-10-03T09:24:31;16.50;99.90
19058;DHT22;9662;53.612;9.914;2022-10-03T09:27:14;16.60;99.90
19058;DHT22;9662;53.612;9.914;2022-10-03T09:30:14;16.70;99.90
19058;DHT22;9662;53.612;9.914;2022-10-03T09:39:24;16.90;99.90
19058;DHT22;9662;53.612;9.914;2022-10-03T09:45:15;16.80;99.90
19058;DHT22;9662;53.612;9.914;2022-10-03T09:51:08;17.10;99.90
19058;DHT22;9662;53.612;9.914;2022-10-03T09:54:12;16.90;99.90
19058;DHT22;9662;53.612;9.914;2022-10-03T10:00:11;17.10;99.90
19058;DHT22;9662;53.612;9.914;2022-10-03T10:03:04;17.30;99.90
19058;DHT22;9662;53.612;9.914;2022-10-03T10:06:02;17.30;99.90
19058;DHT22;9662;53.612;9.914;2022-10-03T10:11:35;17.60;99.90
19058;DHT22;9662;53.612;9.914;2022-10-03T10:14:32;17.70;99.90
19058;DHT22;9662;53.612;9.914;2022-10-03T10:23:21;17.10;99.90
19058;DHT22;9662;53.612;9.914;2022-10-03T10:26:16;16.70;99.90
19058;DHT22;9662;53.612;9.914;2022-10-03T10:29:28;16.50;99.90
19058;DHT22;9662;53.612;9.914;2022-10-03T10:35:45;16.50;99.90
19058;DHT22;9662;53.612;9.914;2022-10-03T10:38:30;16.60;99.90
19058;DHT22;9662;53.612;9.914;2022-10-03T10:44:49;17.00;99.90
19058;DHT22;9662;53.612;9.914;2022-10-03T10:48:07;17.40;99.90
19058;DHT22;9662;53.612;9.914;2022-10-03T10:54:08;17.70;99.90
19058;DHT22;9662;53.612;9.914;2022-10-03T10:56:56;17.90;99.90
19058;DHT22;9662;53.612;9.914;2022-10-03T10:59:50;18.30;99.90
19058;DHT22;9662;53.612;9.914;2022-10-03T11:03:01;18.40;99.90
19058;DHT22;9662;53.612;9.914;2022-10-03T11:15:28;17.20;99.90
19058;DHT22;9662;53.612;9.914;2022-10-03T11:18:31;16.80;99.90
19058;DHT22;9662;53.612;9.914;2022-10-03T11:30:23;16.80;99.90
19058;DHT22;9662;53.612;9.914;2022-10-03T11:36:43;17.40;99.90
19058;DHT22;9662;53.612;9.914;2022-10-03T11:39:20;16.90;99.90
19058;DHT22;9662;53.612;9.914;2022-10-03T11:41:53;17.00;99.90
19058;DHT22;9662;53.612;9.914;2022-10-03T11:44:24;16.90;99.90
19058;DHT22;9662;53.612;9.914;2022-10-03T11:47:19;17.00;99.90
19058;DHT22;9662;53.612;9.914;2022-10-03T11:50:26;16.70;99.90
19058;DHT22;9662;53.612;9.914;2022-10-03T11:53:15;16.80;99.90
19058;DHT22;9662;53.612;9.914;2022-10-03T11:55:46;16.80;99.90
19058;DHT22;9662;53.612;9.914;2022-10-03T11:58:28;16.70;99.90
19058;DHT22;9662;53.612;9.914;2022-10-03T12:01:09;16.50;99.90
19058;DHT22;9662;53.612;9.914;2022-10-03T12:03:46;16.90;99.90
19058;DHT22;9662;53.612;9.914;2022-10-03T12:06:27;17.10;99.90
19058;DHT22;9662;53.612;9.914;2022-10-03T12:09:18;17.10;99.90
19058;DHT22;9662;53.612;9.914;2022-10-03T12:11:56;17.40;99.90
19058;DHT22;9662;53.612;9.914;2022-10-03T12:14:28;17.50;99.90
19058;DHT22;9662;53.612;9.914;2022-10-03T12:17:04;17.70;99.90
19058;DHT22;9662;53.612;9.914;2022-10-03T12:19:38;17.60;99.90
19058;DHT22;9662;53.612;9.914;2022-10-03T12:22:18;17.80;99.90
19058;DHT22;9662;53.612;9.914;2022-10-03T12:24:48;17.80;99.90
19058;DHT22;9662;53.612;9.914;2022-10-03T12:27:21;17.90;99.90
19058;DHT22;9662;53.612;9.914;2022-10-03T12:29:55;17.60;99.90
19058;DHT22;9662;53.612;9.914;2022-10-03T12:32:31;17.80;99.90
19058;DHT22;9662;53.612;9.914;2022-10-03T12:35:11;18.00;99.90
19058;DHT22;9662;53.612;9.914;2022-10-03T12:37:48;18.00;99.90
19058;DHT22;9662;53.612;9.914;2022-10-03T12:40:23;18.10;99.90
19058;DHT22;9662;53.612;9.914;2022-10-03T12:43:02;18.10;99.90
19058;DHT22;9662;53.612;9.914;2022-10-03T12:45:35;18.30;99.90
19058;DHT22;9662;53.612;9.914;2022-10-03T12:48:18;18.00;99.90
19058;DHT22;9662;53.612;9.914;2022-10-03T12:50:53;18.00;99.90
19058;DHT22;9662;53.612;9.914;2022-10-03T12:53:31;18.10;99.90
19058;DHT22;9662;53.612;9.914;2022-10-03T12:56:10;18.00;99.90
19058;DHT22;9662;53.612;9.914;2022-10-03T12:58:54;17.80;99.90
19058;DHT22;9662;53.612;9.914;2022-10-03T13:01:40;17.70;99.90
19058;DHT22;9662;53.612;9.914;2022-10-03T13:04:20;17.60;99.90
19058;DHT22;9662;53.612;9.914;2022-10-03T13:07:09;17.40;99.90
19058;DHT22;9662;53.612;9.914;2022-10-03T13:09:57;17.50;99.90
19058;DHT22;9662;53.612;9.914;2022-10-03T13:12:34;17.50;99.90
19058;DHT22;9662;53.612;9.914;2022-10-03T13:15:32;17.70;99.90
19058;DHT22;9662;53.612;9.914;2022-10-03T13:18:12;18.10;99.90
19058;DHT22;9662;53.612;9.914;2022-10-03T13:20:49;18.10;99.90
19058;DHT22;9662;53.612;9.914;2022-10-03T13:23:22;17.80;99.90
19058;DHT22;9662;53.612;9.914;2022-10-03T13:25:57;17.80;99.90
19058;DHT22;9662;53.612;9.914;2022-10-03T13:28:29;17.60;99.90
19058;DHT22;9662;53.612;9.914;2022-10-03T13:31:02;17.60;99.90
19058;DHT22;9662;53.612;9.914;2022-10-03T13:33:32;17.50;99.90
19058;DHT22;9662;53.612;9.914;2022-10-03T13:36:04;17.60;99.90
19058;DHT22;9662;53.612;9.914;2022-10-03T13:38:53;17.40;99.90
19058;DHT22;9662;53.612;9.914;2022-10-03T13:41:41;17.90;99.90
19058;DHT22;9662;53.612;9.914;2022-10-03T13:44:16;17.90;99.90
19058;DHT22;9662;53.612;9.914;2022-10-03T13:46:50;18.00;99.90
19058;DHT22;9662;53.612;9.914;2022-10-03T13:49:33;18.20;99.90
19058;DHT22;9662;53.612;9.914;2022-10-03T13:52:05;18.30;99.90
19058;DHT22;9662;53.612;9.914;2022-10-03T13:54:51;18.10;99.90
19058;DHT22;9662;53.612;9.914;2022-10-03T13:57:27;17.90;99.90
19058;DHT22;9662;53.612;9.914;2022-10-03T14:00:00;18.00;99.90
19058;DHT22;9662;53.612;9.914;2022-10-03T14:05:42;17.90;99.90
19058;DHT22;9662;53.612;9.914;2022-10-03T14:08:17;17.60;99.90
19058;DHT22;9662;53.612;9.914;2022-10-03T14:11:04;17.90;99.90
19058;DHT22;9662;53.612;9.914;2022-10-03T14:13:45;17.60;99.90
19058;DHT22;9662;53.612;9.914;2022-10-03T14:16:20;17.50;99.90
19058;DHT22;9662;53.612;9.914;2022-10-03T14:18:56;17.20;99.90
19058;DHT22;9662;53.612;9.914;2022-10-03T14:21:55;17.30;99.90
19058;DHT22;9662;53.612;9.914;2022-10-03T14:24:36;17.10;99.90
19058;DHT22;9662;53.612;9.914;2022-10-03T14:27:15;17.30;99.90
19058;DHT22;9662;53.612;9.914;2022-10-03T14:29:57;17.30;99.90
19058;DHT22;9662;53.612;9.914;2022-10-03T14:32:32;16.80;99.90
19058;DHT22;9662;53.612;9.914;2022-10-03T14:35:06;17.10;99.90
19058;DHT22;9662;53.612;9.914;2022-10-03T14:37:39;16.90;99.90
19058;DHT22;9662;53.612;9.914;2022-10-03T14:40:14;17.20;99.90
19058;DHT22;9662;53.612;9.914;2022-10-03T14:43:04;17.40;99.90
19058;DHT22;9662;53.612;9.914;2022-10-03T14:45:42;17.60;99.90
19058;DHT22;9662;53.612;9.914;2022-10-03T14:48:13;17.40;99.90
19058;DHT22;9662;53.612;9.914;2022-10-03T14:50:43;17.50;99.90
19058;DHT22;9662;53.612;9.914;2022-10-03T14:53:16;17.60;99.90
19058;DHT22;9662;53.612;9.914;2022-10-03T14:55:54;17.60;99.90
19058;DHT22;9662;53.612;9.914;2022-10-03T14:58:24;17.60;99.90
19058;DHT22;9662;53.612;9.914;2022-10-03T15:01:02;17.70;99.90
19058;DHT22;9662;53.612;9.914;2022-10-03T15:03:32;17.60;99.90
19058;DHT22;9662;53.612;9.914;2022-10-03T15:06:21;17.60;99.90
19058;DHT22;9662;53.612;9.914;2022-10-03T15:08:58;17.50;99.90
19058;DHT22;9662;53.612;9.914;2022-10-03T15:11:29;17.30;99.90
19058;DHT22;9662;53.612;9.914;2022-10-03T15:13:59;17.30;99.90
19058;DHT22;9662;53.612;9.914;2022-10-03T15:16:32;17.30;99.90
19058;DHT22;9662;53.612;9.914;2022-10-03T15:19:07;17.20;99.90
19058;DHT22;9662;53.612;9.914;2022-10-03T15:21:36;17.10;99.90
19058;DHT22;9662;53.612;9.914;2022-10-03T15:24:07;17.20;99.90
19058;DHT22;9662;53.612;9.914;2022-10-03T15:26:37;17.20;99.90
19058;DHT22;9662;53.612;9.914;2022-10-03T15:29:05;17.20;99.90
19058;DHT22;9662;53.612;9.914;2022-10-03T15:31:35;16.80;99.90
19058;DHT22;9662;53.612;9.914;2022-10-03T15:34:05;17.00;99.90
19058;DHT22;9662;53.612;9.914;2022-10-03T15:36:35;17.20;99.90
19058;DHT22;9662;53.612;9.914;2022-10-03T15:39:05;17.10;99.90
19058;DHT22;9662;53.612;9.914;2022-10-03T15:41:36;16.90;99.90
19058;DHT22;9662;53.612;9.914;2022-10-03T15:44:16;16.90;99.90
19058;DHT22;9662;53.612;9.914;2022-10-03T15:46:48;16.90;99.90
19058;DHT22;9662;53.612;9.914;2022-10-03T15:49:19;16.90;99.90
19058;DHT22;9662;53.612;9.914;2022-10-03T15:51:49;16.70;99.90
19058;DHT22;9662;53.612;9.914;2022-10-03T15:54:20;16.90;99.90
19058;DHT22;9662;53.612;9.914;2022-10-03T15:56:50;16.80;99.90
19058;DHT22;9662;53.612;9.914;2022-10-03T15:59:22;16.80;99.90
19058;DHT22;9662;53.612;9.914;2022-10-03T16:01:54;16.90;99.90
19058;DHT22;9662;53.612;9.914;2022-10-03T16:04:24;16.70;99.90
19058;DHT22;9662;53.612;9.914;2022-10-03T16:06:59;16.90;99.90
19058;DHT22;9662;53.612;9.914;2022-10-03T16:09:31;16.80;99.90
19058;DHT22;9662;53.612;9.914;2022-10-03T16:12:15;16.20;99.90
19058;DHT22;9662;53.612;9.914;2022-10-03T16:14:44;16.40;99.90
19058;DHT22;9662;53.612;9.914;2022-10-03T16:17:17;16.50;99.90
19058;DHT22;9662;53.612;9.914;2022-10-03T16:19:51;16.40;99.90
19058;DHT22;9662;53.612;9.914;2022-10-03T16:22:23;16.40;99.90
19058;DHT22;9662;53.612;9.914;2022-10-03T16:25:01;16.10;99.90
19058;DHT22;9662;53.612;9.914;2022-10-03T16:27:32;16.10;99.90
19058;DHT22;9662;53.612;9.914;2022-10-03T16:30:15;15.80;99.90
19058;DHT22;9662;53.612;9.914;2022-10-03T16:32:48;15.70;99.90
19058;DHT22;9662;53.612;9.914;2022-10-03T16:35:29;15.60;99.90
19058;DHT22;9662;53.612;9.914;2022-10-03T16:37:57;15.70;99.90
19058;DHT22;9662;53.612;9.914;2022-10-03T16:40:25;15.60;99.90
19058;DHT22;9662;53.612;9.914;2022-10-03T16:42:55;15.70;99.90
19058;DHT22;9662;53.612;9.914;2022-10-03T16:45:26;15.70;99.90
19058;DHT22;9662;53.612;9.914;2022-10-03T16:47:57;15.70;99.90
19058;DHT22;9662;53.612;9.914;2022-10-03T16:50:46;15.60;99.90
19058;DHT22;9662;53.612;9.914;2022-10-03T16:53:15;15.70;99.90
19058;DHT22;9662;53.612;9.914;2022-10-03T16:55:46;15.60;99.90
19058;DHT22;9662;53.612;9.914;2022-10-03T16:58:18;15.30;99.90
19058;DHT22;9662;53.612;9.914;2022-10-03T17:00:51;15.40;99.90
19058;DHT22;9662;53.612;9.914;2022-10-03T17:03:24;15.60;99.90
19058;DHT22;9662;53.612;9.914;2022-10-03T17:05:53;15.60;99.90
19058;DHT22;9662;53.612;9.914;2022-10-03T17:08:26;15.50;99.90
19058;DHT22;9662;53.612;9.914;2022-10-03T17:10:55;15.60;99.90
19058;DHT22;9662;53.612;9.914;2022-10-03T17:13:36;15.50;99.90
19058;DHT22;9662;53.612;9.914;2022-10-03T17:16:10;15.30;99.90
19058;DHT22;9662;53.612;9.914;2022-10-03T17:18:41;15.20;99.90
19058;DHT22;9662;53.612;9.914;2022-10-03T17:21:18;15.20;99.90
19058;DHT22;9662;53.612;9.914;2022-10-03T17:23:55;15.30;99.90
19058;DHT22;9662;53.612;9.914;2022-10-03T17:26:27;15.30;99.90
19058;DHT22;9662;53.612;9.914;2022-10-03T17:29:02;15.10;99.90
19058;DHT22;9662;53.612;9.914;2022-10-03T17:31:37;15.20;99.90
19058;DHT22;9662;53.612;9.914;2022-10-03T17:34:12;15.20;99.90
19058;DHT22;9662;53.612;9.914;2022-10-03T17:37:01;15.20;99.90
19058;DHT22;9662;53.612;9.914;2022-10-03T17:39:37;15.20;99.90
19058;DHT22;9662;53.612;9.914;2022-10-03T17:42:14;15.00;99.90
19058;DHT22;9662;53.612;9.914;2022-10-03T17:44:55;15.00;99.90
19058;DHT22;9662;53.612;9.914;2022-10-03T17:47:28;15.10;99.90
19058;DHT22;9662;53.612;9.914;2022-10-03T17:50:04;15.00;99.90
19058;DHT22;9662;53.612;9.914;2022-10-03T17:52:32;15.00;99.90
19058;DHT22;9662;53.612;9.914;2022-10-03T17:55:06;15.00;99.90
19058;DHT22;9662;53.612;9.914;2022-10-03T17:57:40;15.00;99.90
19058;DHT22;9662;53.612;9.914;2022-10-03T18:00:17;15.00;99.90
19058;DHT22;9662;53.612;9.914;2022-10-03T18:02:50;14.80;99.90
19058;DHT22;9662;53.612;9.914;2022-10-03T18:05:24;14.90;99.90
19058;DHT22;9662;53.612;9.914;2022-10-03T18:07:53;14.90;99.90
19058;DHT22;9662;53.612;9.914;2022-10-03T18:10:24;14.80;99.90
19058;DHT22;9662;53.612;9.914;2022-10-03T18:12:54;14.80;99.90
19058;DHT22;9662;53.612;9.914;2022-10-03T18:15:38;14.80;99.90
19058;DHT22;9662;53.612;9.914;2022-10-03T18:18:44;14.90;99.90
19058;DHT22;9662;53.612;9.914;2022-10-03T18:21:21;14.80;99.90
19058;DHT22;9662;53.612;9.914;2022-10-03T18:24:05;14.90;99.90
19058;DHT22;9662;53.612;9.914;2022-10-03T18:26:40;15.00;99.90
19058;DHT22;9662;53.612;9.914;2022-10-03T18:29:30;15.00;99.90
19058;DHT22;9662;53.612;9.914;2022-10-03T18:32:10;15.00;99.90
19058;DHT22;9662;53.612;9.914;2022-10-03T18:34:42;15.00;99.90
19058;DHT22;9662;53.612;9.914;2022-10-03T18:40:18;14.70;99.90
19058;DHT22;9662;53.612;9.914;2022-10-03T18:42:46;14.80;99.90
19058;DHT22;9662;53.612;9.914;2022-10-03T18:45:17;14.80;99.90
19058;DHT22;9662;53.612;9.914;2022-10-03T18:47:50;14.70;99.90
19058;DHT22;9662;53.612;9.914;2022-10-03T18:50:20;14.70;99.90
19058;DHT22;9662;53.612;9.914;2022-10-03T18:52:52;14.80;99.90
19058;DHT22;9662;53.612;9.914;2022-10-03T18:55:25;14.70;99.90
19058;DHT22;9662;53.612;9.914;2022-10-03T18:58:00;14.80;99.90
19058;DHT22;9662;53.612;9.914;2022-10-03T19:00:32;14.70;99.90
19058;DHT22;9662;53.612;9.914;2022-10-03T19:03:10;14.80;99.90
19058;DHT22;9662;53.612;9.914;2022-10-03T19:05:44;14.80;99.90
19058;DHT22;9662;53.612;9.914;2022-10-03T19:08:17;14.70;99.90
19058;DHT22;9662;53.612;9.914;2022-10-03T19:10:50;14.70;99.90
19058;DHT22;9662;53.612;9.914;2022-10-03T19:13:26;14.80;99.90
19058;DHT22;9662;53.612;9.914;2022-10-03T19:16:13;14.70;99.90
19058;DHT22;9662;53.612;9.914;2022-10-03T19:18:42;14.60;99.90
19058;DHT22;9662;53.612;9.914;2022-10-03T19:21:13;14.60;99.90
19058;DHT22;9662;53.612;9.914;2022-10-03T19:23:45;14.60;99.90
19058;DHT22;9662;53.612;9.914;2022-10-03T19:26:22;14.60;99.90
19058;DHT22;9662;53.612;9.914;2022-10-03T19:28:52;14.50;99.90
19058;DHT22;9662;53.612;9.914;2022-10-03T19:31:24;14.50;99.90
19058;DHT22;9662;53.612;9.914;2022-10-03T19:33:55;14.60;99.90
19058;DHT22;9662;53.612;9.914;2022-10-03T19:36:28;14.50;99.90
19058;DHT22;9662;53.612;9.914;2022-10-03T19:38:56;14.50;99.90
19058;DHT22;9662;53.612;9.914;2022-10-03T19:41:30;14.50;99.90
19058;DHT22;9662;53.612;9.914;2022-10-03T19:44:02;14.60;99.90
19058;DHT22;9662;53.612;9.914;2022-10-03T19:46:48;14.50;99.90